createdAt,value
2023-05-05T00:00:44.832Z,99677.19
2023-05-05T00:01:48.403Z,99665.78
2023-05-05T00:02:52.329Z,99677.91
2023-05-05T00:03:56.061Z,99676.91
2023-05-05T00:04:58.776Z,99676.88
2023-05-05T00:06:02.572Z,99674.13
2023-05-05T00:07:05.226Z,99685.22
2023-05-05T00:08:08.785Z,99684.25
2023-05-05T00:09:11.121Z,99675.53
2023-05-05T00:10:14.883Z,99680.63
2023-05-05T00:11:17.549Z,99676.16
2023-05-05T00:12:21.206Z,99666.41
2023-05-05T00:13:23.505Z,99671.78
2023-05-05T00:14:27.147Z,99671.75
2023-05-05T00:15:29.843Z,99670.81
2023-05-05T00:16:33.680Z,99667.28
2023-05-05T00:17:36.499Z,99656.91
2023-05-05T00:18:41.477Z,99658.56
2023-05-05T00:19:44.079Z,99660.25
2023-05-05T00:20:48.357Z,99661.03
2023-05-05T00:21:52.386Z,99657.56
2023-05-05T00:22:55.940Z,99654.97
2023-05-05T00:23:58.171Z,99661.78
2023-05-05T00:25:01.801Z,99659.97
2023-05-05T00:26:23.332Z,99662.56
2023-05-05T00:27:27.275Z,99663.38
2023-05-05T00:28:29.730Z,99665.06
2023-05-05T00:29:33.651Z,99662.44
2023-05-05T00:30:36.665Z,99663.25
2023-05-05T00:31:40.544Z,99670.13
2023-05-05T00:32:43.172Z,99666.59
2023-05-05T00:33:48.379Z,99662.31
2023-05-05T00:34:51.021Z,99660.56
2023-05-05T00:35:54.829Z,99661.41
2023-05-05T00:36:59.237Z,99665.72
2023-05-05T00:38:03.189Z,99663.97
2023-05-05T00:39:06.863Z,99675.16
2023-05-05T00:40:10.793Z,99673.44
2023-05-05T00:41:14.569Z,99667.25
2023-05-05T00:42:17.201Z,99674.31
2023-05-05T00:43:21.256Z,99673.34
2023-05-05T00:44:37.348Z,99654.94
2023-05-05T00:45:43.094Z,99667.38
2023-05-05T00:46:46.213Z,99674.31
2023-05-05T00:47:51.619Z,99672.53
2023-05-05T00:48:56.464Z,99666.44
2023-05-05T00:50:00.408Z,99671.66
2023-05-05T00:51:03.044Z,99671.66
2023-05-05T00:52:08.078Z,99667.25
2023-05-05T00:53:11.815Z,99665.56
2023-05-05T00:54:14.469Z,99665.50
2023-05-05T00:55:18.540Z,99666.38
2023-05-05T00:56:23.469Z,99660.34
2023-05-05T00:57:26.495Z,99661.97
2023-05-05T00:58:30.866Z,99666.25
2023-05-05T00:59:34.264Z,99659.38
2023-05-05T01:00:37.992Z,99663.63
2023-05-05T01:01:40.280Z,99665.31
2023-05-05T01:02:44.201Z,99666.16
2023-05-05T01:03:47.086Z,99671.25
2023-05-05T01:04:52.944Z,99662.56
2023-05-05T01:06:06.302Z,99663.38
2023-05-05T01:07:17.527Z,99656.41
2023-05-05T01:08:37.227Z,99663.38
2023-05-05T01:09:50.695Z,99660.81
2023-05-05T01:11:04.785Z,99651.31
2023-05-05T01:12:16.979Z,99650.34
2023-05-05T01:13:29.957Z,99647.00
2023-05-05T01:14:39.880Z,99651.31
2023-05-05T01:15:50.061Z,99628.41
2023-05-05T01:16:59.373Z,99653.91
2023-05-05T01:18:15.662Z,99649.47
2023-05-05T01:19:29.014Z,99653.00
2023-05-05T01:20:42.075Z,99656.41
2023-05-05T01:21:50.147Z,99654.72
2023-05-05T01:22:58.801Z,99653.81
2023-05-05T01:24:23.820Z,99658.94
2023-05-05T01:25:57.867Z,99647.59
2023-05-05T01:27:21.322Z,99661.53
2023-05-05T01:28:31.697Z,99659.75
2023-05-05T01:30:02.415Z,99665.84
2023-05-05T01:31:18.297Z,99664.13
2023-05-05T01:32:27.923Z,99653.69
2023-05-05T01:33:37.285Z,99647.66
2023-05-05T01:34:45.616Z,99661.56
2023-05-05T01:35:52.783Z,99659.06
2023-05-05T01:37:04.911Z,99651.31
2023-05-05T01:38:14.194Z,99654.81
2023-05-05T01:39:19.402Z,99660.88
2023-05-05T01:40:26.468Z,99662.63
2023-05-05T01:41:33.792Z,99662.69
2023-05-05T01:42:38.437Z,99672.19
2023-05-05T01:43:46.021Z,99670.56
2023-05-05T01:44:50.079Z,99659.28
2023-05-05T01:45:56.214Z,99663.75
2023-05-05T01:47:01.647Z,99661.16
2023-05-05T01:48:08.642Z,99655.22
2023-05-05T01:49:12.314Z,99659.59
2023-05-05T01:50:17.819Z,99643.19
2023-05-05T01:51:23.594Z,99646.59
2023-05-05T01:52:29.430Z,99654.63
2023-05-05T01:53:33.077Z,99653.75
2023-05-05T01:54:37.551Z,99648.69
2023-05-05T01:55:41.057Z,99655.63
2023-05-05T01:56:44.680Z,99654.81
2023-05-05T01:57:50.106Z,99640.00
2023-05-05T01:58:56.134Z,99653.97
2023-05-05T01:59:59.358Z,99653.28
2023-05-05T02:01:04.211Z,99649.91
2023-05-05T02:02:09.572Z,99647.25
2023-05-05T02:03:16.948Z,99654.31
2023-05-05T02:04:22.973Z,99651.75
2023-05-05T02:05:28.182Z,99647.59
2023-05-05T02:06:32.758Z,99645.09
2023-05-05T02:07:37.451Z,99644.25
2023-05-05T02:08:42.172Z,99647.72
2023-05-05T02:09:46.434Z,99640.97
2023-05-05T02:10:50.406Z,99641.84
2023-05-05T02:11:54.636Z,99641.09
2023-05-05T02:12:59.550Z,99637.75
2023-05-05T02:14:04.583Z,99637.63
2023-05-05T02:15:09.290Z,99637.06
2023-05-05T02:16:14.663Z,99644.97
2023-05-05T02:17:19.018Z,99638.09
2023-05-05T02:18:26.196Z,99639.91
2023-05-05T02:19:32.316Z,99638.22
2023-05-05T02:20:37.587Z,99646.91
2023-05-05T02:21:41.649Z,99641.84
2023-05-05T02:22:45.701Z,99643.78
2023-05-05T02:23:52.035Z,99648.16
2023-05-05T02:24:56.251Z,99650.91
2023-05-05T02:26:06.660Z,99644.13
2023-05-05T02:27:12.372Z,99648.53
2023-05-05T02:28:21.297Z,99640.88
2023-05-05T02:29:31.491Z,99647.94
2023-05-05T02:30:36.956Z,99641.09
2023-05-05T02:31:45.596Z,99633.47
2023-05-05T02:32:54.271Z,99637.88
2023-05-05T02:34:01.679Z,99644.91
2023-05-05T02:35:11.283Z,99642.47
2023-05-05T02:36:20.652Z,99635.63
2023-05-05T02:37:27.808Z,99636.47
2023-05-05T02:38:34.281Z,99638.50
2023-05-05T02:39:43.778Z,99629.88
2023-05-05T02:40:49.757Z,99633.50
2023-05-05T02:41:54.604Z,99635.38
2023-05-05T02:43:00.330Z,99639.78
2023-05-05T02:44:05.707Z,99634.72
2023-05-05T02:45:16.649Z,99634.00
2023-05-05T02:46:19.891Z,99636.69
2023-05-05T02:47:23.540Z,99632.53
2023-05-05T02:48:25.750Z,99636.91
2023-05-05T02:49:31.114Z,99634.47
2023-05-05T02:50:33.911Z,99631.84
2023-05-05T02:51:37.458Z,99639.81
2023-05-05T02:52:40.371Z,99635.53
2023-05-05T02:53:44.216Z,99629.56
2023-05-05T02:54:46.874Z,99636.56
2023-05-05T02:55:54.481Z,99638.38
2023-05-05T02:56:58.322Z,99633.25
2023-05-05T02:58:07.971Z,99624.59
2023-05-05T02:59:16.480Z,99628.22
2023-05-05T03:00:25.961Z,99624.03
2023-05-05T03:01:33.808Z,99612.56
2023-05-05T03:02:53.287Z,99627.59
2023-05-05T03:04:05.141Z,99626.75
2023-05-05T03:05:14.646Z,99635.56
2023-05-05T03:06:20.044Z,99623.56
2023-05-05T03:07:27.678Z,99625.34
2023-05-05T03:08:40.282Z,99623.75
2023-05-05T03:09:51.722Z,99621.25
2023-05-05T03:11:00.912Z,99617.97
2023-05-05T03:12:07.190Z,99614.66
2023-05-05T03:13:12.043Z,99606.13
2023-05-05T03:14:18.533Z,99620.09
2023-05-05T03:15:26.413Z,99609.78
2023-05-05T03:16:32.606Z,99604.00
2023-05-05T03:17:36.973Z,99595.38
2023-05-05T03:18:42.678Z,99605.13
2023-05-05T03:19:45.448Z,99607.84
2023-05-05T03:20:51.020Z,99598.41
2023-05-05T03:21:54.596Z,99601.16
2023-05-05T03:22:58.618Z,99600.44
2023-05-05T03:24:01.296Z,99593.66
2023-05-05T03:25:05.233Z,99603.22
2023-05-05T03:26:07.795Z,99611.19
2023-05-05T03:27:11.332Z,99598.22
2023-05-05T03:28:14.444Z,99604.47
2023-05-05T03:29:18.415Z,99603.59
2023-05-05T03:30:21.131Z,99595.88
2023-05-05T03:31:24.922Z,99603.84
2023-05-05T03:32:27.561Z,99610.88
2023-05-05T03:33:31.257Z,99607.50
2023-05-05T03:34:34.019Z,99604.13
2023-05-05T03:35:37.611Z,99609.38
2023-05-05T03:36:42.374Z,99599.16
2023-05-05T03:37:44.898Z,99595.69
2023-05-05T03:38:49.157Z,99606.22
2023-05-05T03:39:51.642Z,99602.03
2023-05-05T03:40:55.256Z,99601.28
2023-05-05T03:41:57.396Z,99604.84
2023-05-05T03:43:01.076Z,99599.72
2023-05-05T03:44:03.347Z,99600.53
2023-05-05T03:45:07.722Z,99594.44
2023-05-05T03:46:10.827Z,99604.94
2023-05-05T03:47:14.502Z,99603.25
2023-05-05T03:48:16.763Z,99601.53
2023-05-05T03:49:20.015Z,99598.19
2023-05-05T03:50:24.505Z,99598.19
2023-05-05T03:51:28.274Z,99591.38
2023-05-05T03:52:32.613Z,99596.66
2023-05-05T03:53:36.391Z,99601.09
2023-05-05T03:54:39.974Z,99597.75
2023-05-05T03:55:42.215Z,99593.47
2023-05-05T03:56:45.680Z,99597.06
2023-05-05T03:57:48.159Z,99591.88
2023-05-05T03:58:51.967Z,99594.69
2023-05-05T03:59:54.566Z,99598.25
2023-05-05T04:00:58.236Z,99599.22
2023-05-05T04:02:00.525Z,99595.00
2023-05-05T04:03:04.463Z,99603.75
2023-05-05T04:04:07.096Z,99606.44
2023-05-05T04:05:11.245Z,99602.19
2023-05-05T04:06:13.750Z,99597.09
2023-05-05T04:07:17.293Z,99597.19
2023-05-05T04:08:21.231Z,99599.88
2023-05-05T04:09:24.885Z,99593.03
2023-05-05T04:10:27.222Z,99582.75
2023-05-05T04:11:31.486Z,99589.75
2023-05-05T04:12:34.118Z,99589.88
2023-05-05T04:13:37.879Z,99595.13
2023-05-05T04:14:40.705Z,99586.59
2023-05-05T04:15:47.209Z,99590.06
2023-05-05T04:16:49.742Z,99589.34
2023-05-05T04:17:53.314Z,99592.91
2023-05-05T04:18:55.668Z,99585.22
2023-05-05T04:19:58.884Z,99594.81
2023-05-05T04:21:01.461Z,99589.66
2023-05-05T04:22:05.041Z,99596.59
2023-05-05T04:23:07.406Z,99594.81
2023-05-05T04:24:12.668Z,99590.44
2023-05-05T04:25:15.356Z,99578.25
2023-05-05T04:26:18.993Z,99580.03
2023-05-05T04:27:21.542Z,99584.41
2023-05-05T04:28:25.140Z,99586.19
2023-05-05T04:29:27.345Z,99592.28
2023-05-05T04:30:30.887Z,99585.41
2023-05-05T04:31:33.501Z,99581.09
2023-05-05T04:32:37.123Z,99576.84
2023-05-05T04:33:39.268Z,99576.09
2023-05-05T04:34:42.776Z,99569.25
2023-05-05T04:35:45.232Z,99566.69
2023-05-05T04:36:48.913Z,99560.66
2023-05-05T04:37:51.475Z,99565.09
2023-05-05T04:38:55.156Z,99569.56
2023-05-05T04:39:59.347Z,99574.00
2023-05-05T04:41:06.575Z,99561.97
2023-05-05T04:42:09.398Z,99561.19
2023-05-05T04:43:13.510Z,99562.03
2023-05-05T04:44:16.167Z,99563.06
2023-05-05T04:45:19.835Z,99562.22
2023-05-05T04:46:22.346Z,99564.03
2023-05-05T04:47:26.192Z,99557.16
2023-05-05T04:48:28.721Z,99558.97
2023-05-05T04:49:32.593Z,99564.22
2023-05-05T04:50:35.162Z,99566.03
2023-05-05T04:51:42.038Z,99563.47
2023-05-05T04:52:44.669Z,99571.34
2023-05-05T04:53:48.770Z,99573.13
2023-05-05T04:54:51.314Z,99580.09
2023-05-05T04:55:56.332Z,99569.63
2023-05-05T04:56:59.399Z,99571.25
2023-05-05T04:58:03.162Z,99569.56
2023-05-05T04:59:06.303Z,99566.03
2023-05-05T05:00:11.119Z,99566.94
2023-05-05T05:01:13.814Z,99563.50
2023-05-05T05:02:17.424Z,99565.25
2023-05-05T05:03:20.070Z,99554.00
2023-05-05T05:04:24.120Z,99563.63
2023-05-05T05:05:26.912Z,99555.78
2023-05-05T05:06:30.712Z,99561.09
2023-05-05T05:07:33.275Z,99561.13
2023-05-05T05:08:36.939Z,99566.34
2023-05-05T05:09:39.455Z,99569.81
2023-05-05T05:10:43.782Z,99569.81
2023-05-05T05:11:47.844Z,99568.09
2023-05-05T05:12:51.406Z,99564.63
2023-05-05T05:13:53.687Z,99571.69
2023-05-05T05:14:57.340Z,99573.53
2023-05-05T05:15:59.602Z,99564.03
2023-05-05T05:17:02.862Z,99566.72
2023-05-05T05:18:05.585Z,99560.63
2023-05-05T05:19:09.376Z,99577.28
2023-05-05T05:20:11.860Z,99567.81
2023-05-05T05:21:15.532Z,99568.72
2023-05-05T05:22:17.714Z,99577.44
2023-05-05T05:23:21.018Z,99573.06
2023-05-05T05:24:25.651Z,99568.75
2023-05-05T05:25:28.304Z,99560.06
2023-05-05T05:26:31.975Z,99558.28
2023-05-05T05:27:35.923Z,99566.91
2023-05-05T05:28:39.512Z,99559.06
2023-05-05T05:29:41.799Z,99558.13
2023-05-05T05:30:45.403Z,99557.31
2023-05-05T05:31:47.699Z,99558.16
2023-05-05T05:32:51.339Z,99550.31
2023-05-05T05:33:53.516Z,99556.44
2023-05-05T05:34:56.875Z,99553.84
2023-05-05T05:35:59.890Z,99549.50
2023-05-05T05:37:03.477Z,99554.75
2023-05-05T05:38:05.638Z,99547.00
2023-05-05T05:39:08.950Z,99552.19
2023-05-05T05:40:12.224Z,99555.66
2023-05-05T05:41:15.870Z,99554.84
2023-05-05T05:42:17.995Z,99544.41
2023-05-05T05:43:22.779Z,99553.13
2023-05-05T05:44:25.247Z,99541.88
2023-05-05T05:45:28.867Z,99541.06
2023-05-05T05:46:32.131Z,99544.56
2023-05-05T05:47:34.658Z,99548.06
2023-05-05T05:48:38.379Z,99542.84
2023-05-05T05:49:40.939Z,99536.78
2023-05-05T05:50:44.764Z,99544.66
2023-05-05T05:51:47.765Z,99538.59
2023-05-05T05:52:51.345Z,99538.63
2023-05-05T05:53:53.729Z,99531.75
2023-05-05T05:54:57.798Z,99540.47
2023-05-05T05:56:01.680Z,99534.44
2023-05-05T05:57:05.535Z,99533.59
2023-05-05T05:58:08.098Z,99534.50
2023-05-05T05:59:13.269Z,99522.38
2023-05-05T06:00:16.506Z,99527.53
2023-05-05T06:01:21.461Z,99523.13
2023-05-05T06:02:24.121Z,99517.84
2023-05-05T06:03:28.092Z,99523.06
2023-05-05T06:04:31.207Z,99526.56
2023-05-05T06:05:34.803Z,99537.88
2023-05-05T06:06:37.078Z,99532.66
2023-05-05T06:07:40.507Z,99532.69
2023-05-05T06:08:43.305Z,99537.91
2023-05-05T06:09:47.044Z,99527.47
2023-05-05T06:10:49.805Z,99538.81
2023-05-05T06:11:53.891Z,99537.09
2023-05-05T06:12:56.703Z,99530.22
2023-05-05T06:14:00.319Z,99523.28
2023-05-05T06:15:04.165Z,99533.78
2023-05-05T06:16:09.215Z,99526.88
2023-05-05T06:17:11.992Z,99523.41
2023-05-05T06:18:16.695Z,99526.06
2023-05-05T06:19:20.401Z,99528.72
2023-05-05T06:20:22.930Z,99533.09
2023-05-05T06:21:28.006Z,99534.03
2023-05-05T06:22:30.694Z,99527.06
2023-05-05T06:23:34.434Z,99527.97
2023-05-05T06:24:37.070Z,99514.91
2023-05-05T06:25:41.345Z,99510.56
2023-05-05T06:26:45.051Z,99513.19
2023-05-05T06:27:47.727Z,99514.94
2023-05-05T06:28:51.471Z,99514.97
2023-05-05T06:29:54.125Z,99509.75
2023-05-05T06:30:59.056Z,99521.13
2023-05-05T06:32:01.612Z,99523.75
2023-05-05T06:33:05.479Z,99517.69
2023-05-05T06:34:08.097Z,99525.50
2023-05-05T06:35:12.047Z,99517.69
2023-05-05T06:36:14.968Z,99515.97
2023-05-05T06:37:18.704Z,99514.22
2023-05-05T06:38:22.756Z,99515.13
2023-05-05T06:39:25.367Z,99516.00
2023-05-05T06:40:28.942Z,99516.00
2023-05-05T06:41:31.163Z,99515.16
2023-05-05T06:42:34.415Z,99518.63
2023-05-05T06:43:37.050Z,99512.53
2023-05-05T06:44:40.591Z,99510.81
2023-05-05T06:45:43.997Z,99514.31
2023-05-05T06:46:49.479Z,99517.78
2023-05-05T06:47:52.705Z,99509.06
2023-05-05T06:48:56.569Z,99513.44
2023-05-05T06:49:59.151Z,99516.94
2023-05-05T06:51:03.123Z,99509.94
2023-05-05T06:52:05.793Z,99511.69
2023-05-05T06:53:09.939Z,99515.19
2023-05-05T06:54:12.613Z,99509.94
2023-05-05T06:55:17.338Z,99513.44
2023-05-05T06:56:20.036Z,99502.06
2023-05-05T06:57:23.721Z,99501.19
2023-05-05T06:58:26.321Z,99503.88
2023-05-05T06:59:30.015Z,99497.75
2023-05-05T07:00:33.797Z,99501.22
2023-05-05T07:01:36.330Z,99502.97
2023-05-05T07:02:41.480Z,99501.22
2023-05-05T07:03:44.587Z,99495.97
2023-05-05T07:04:48.364Z,99496.81
2023-05-05T07:05:54.035Z,99488.97
2023-05-05T07:06:58.469Z,99491.56
2023-05-05T07:08:02.153Z,99482.84
2023-05-05T07:09:04.787Z,99487.16
2023-05-05T07:10:10.145Z,99484.53
2023-05-05T07:11:12.847Z,99482.78
2023-05-05T07:12:16.441Z,99483.63
2023-05-05T07:13:18.698Z,99483.56
2023-05-05T07:14:24.374Z,99478.31
2023-05-05T07:15:29.636Z,99480.00
2023-05-05T07:16:34.977Z,99484.38
2023-05-05T07:17:37.617Z,99475.56
2023-05-05T07:18:42.757Z,99478.97
2023-05-05T07:19:45.314Z,99471.09
2023-05-05T07:20:49.113Z,99481.59
2023-05-05T07:21:52.646Z,99471.91
2023-05-05T07:22:55.987Z,99466.69
2023-05-05T07:23:58.595Z,99469.25
2023-05-05T07:25:02.267Z,99474.44
2023-05-05T07:26:06.283Z,99475.28
2023-05-05T07:27:08.947Z,99474.34
2023-05-05T07:28:12.870Z,99466.41
2023-05-05T07:29:15.332Z,99472.50
2023-05-05T07:30:19.452Z,99458.50
2023-05-05T07:31:22.543Z,99464.56
2023-05-05T07:32:26.605Z,99464.56
2023-05-05T07:33:30.236Z,99459.28
2023-05-05T07:34:38.074Z,99465.44
2023-05-05T07:35:41.900Z,99470.59
2023-05-05T07:36:46.508Z,99457.44
2023-05-05T07:37:50.344Z,99464.41
2023-05-05T07:38:53.167Z,99458.28
2023-05-05T07:39:56.958Z,99457.41
2023-05-05T07:40:59.646Z,99448.69
2023-05-05T07:42:03.595Z,99439.97
2023-05-05T07:43:07.276Z,99463.47
2023-05-05T07:44:09.951Z,99428.50
2023-05-05T07:45:13.928Z,99421.41
2023-05-05T07:46:17.711Z,99455.38
2023-05-05T07:47:20.696Z,99443.00
2023-05-05T07:48:24.499Z,99433.34
2023-05-05T07:49:27.255Z,99438.53
2023-05-05T07:50:32.547Z,99419.25
2023-05-05T07:51:35.177Z,99424.53
2023-05-05T07:52:48.466Z,99437.66
2023-05-05T07:53:55.562Z,99427.16
2023-05-05T07:54:58.181Z,99431.44
2023-05-05T07:56:01.980Z,99433.25
2023-05-05T07:57:05.800Z,99431.53
2023-05-05T07:58:11.184Z,99432.50
2023-05-05T07:59:13.943Z,99425.47
2023-05-05T08:00:19.647Z,99427.19
2023-05-05T08:01:22.168Z,99421.06
2023-05-05T08:02:25.994Z,99422.75
2023-05-05T08:03:28.902Z,99431.44
2023-05-05T08:04:32.629Z,99419.25
2023-05-05T08:05:37.938Z,99420.94
2023-05-05T08:06:40.459Z,99423.53
2023-05-05T08:07:44.154Z,99421.66
2023-05-05T08:08:47.041Z,99426.91
2023-05-05T08:09:50.724Z,99425.06
2023-05-05T08:10:54.703Z,99419.72
2023-05-05T08:11:58.665Z,99421.38
2023-05-05T08:13:02.491Z,99398.59
2023-05-05T08:14:05.311Z,99418.50
2023-05-05T08:15:09.840Z,99414.00
2023-05-05T08:16:13.929Z,99413.97
2023-05-05T08:17:19.568Z,99414.84
2023-05-05T08:18:24.506Z,99411.34
2023-05-05T08:19:29.567Z,99412.22
2023-05-05T08:20:33.489Z,99405.09
2023-05-05T08:21:37.676Z,99404.31
2023-05-05T08:22:42.093Z,99402.50
2023-05-05T08:23:45.798Z,99405.97
2023-05-05T08:24:48.515Z,99406.22
2023-05-05T08:25:52.816Z,99406.91
2023-05-05T08:26:56.908Z,99403.47
2023-05-05T08:28:00.809Z,99402.47
2023-05-05T08:29:04.056Z,99379.78
2023-05-05T08:30:09.460Z,99402.34
2023-05-05T08:31:13.134Z,99394.41
2023-05-05T08:32:16.487Z,99406.50
2023-05-05T08:33:20.541Z,99412.59
2023-05-05T08:34:24.200Z,99397.59
2023-05-05T08:35:28.366Z,99398.34
2023-05-05T08:36:31.233Z,99393.97
2023-05-05T08:37:36.416Z,99393.84
2023-05-05T08:38:40.324Z,99393.75
2023-05-05T08:39:42.854Z,99391.84
2023-05-05T08:40:47.412Z,99390.91
2023-05-05T08:41:50.065Z,99395.19
2023-05-05T08:42:53.822Z,99383.84
2023-05-05T08:43:57.780Z,99392.47
2023-05-05T08:45:01.513Z,99387.16
2023-05-05T08:46:06.690Z,99385.44
2023-05-05T08:47:11.714Z,99388.06
2023-05-05T08:48:19.439Z,99383.63
2023-05-05T08:49:24.660Z,99382.66
2023-05-05T08:50:29.989Z,99386.09
2023-05-05T08:51:45.249Z,99378.97
2023-05-05T08:52:55.403Z,99378.81
2023-05-05T08:54:03.684Z,99378.03
2023-05-05T08:55:14.057Z,99378.03
2023-05-05T08:56:20.205Z,99368.78
2023-05-05T08:57:29.026Z,99368.53
2023-05-05T08:58:33.360Z,99369.28
2023-05-05T08:59:38.647Z,99370.94
2023-05-05T09:00:43.106Z,99365.53
2023-05-05T09:01:47.142Z,99368.91
2023-05-05T09:02:50.793Z,99362.56
2023-05-05T09:03:55.048Z,99366.91
2023-05-05T09:04:57.827Z,99368.56
2023-05-05T09:06:01.694Z,99350.84
2023-05-05T09:07:04.593Z,99371.03
2023-05-05T09:08:10.110Z,99361.63
2023-05-05T09:09:15.154Z,99355.63
2023-05-05T09:10:18.277Z,99353.75
2023-05-05T09:11:22.786Z,99350.34
2023-05-05T09:12:25.964Z,99355.81
2023-05-05T09:13:31.329Z,99343.59
2023-05-05T09:14:34.151Z,99344.47
2023-05-05T09:15:39.279Z,99355.81
2023-05-05T09:16:44.924Z,99350.66
2023-05-05T09:17:47.759Z,99345.31
2023-05-05T09:18:52.683Z,99347.97
2023-05-05T09:20:04.540Z,99336.41
2023-05-05T09:21:21.590Z,99332.88
2023-05-05T09:22:33.834Z,99332.88
2023-05-05T09:23:38.888Z,99325.91
2023-05-05T09:24:55.554Z,99328.16
2023-05-05T09:26:09.055Z,99328.84
2023-05-05T09:27:24.561Z,99324.22
2023-05-05T09:28:27.463Z,99319.72
2023-05-05T09:29:31.446Z,99325.78
2023-05-05T09:30:36.919Z,99316.84
2023-05-05T09:31:41.299Z,99314.97
2023-05-05T09:32:45.819Z,99318.41
2023-05-05T09:33:50.343Z,99312.19
2023-05-05T09:35:00.319Z,99305.06
2023-05-05T09:36:04.361Z,99297.19
2023-05-05T09:37:06.960Z,99305.22
2023-05-05T09:38:13.932Z,99312.31
2023-05-05T09:39:21.337Z,99310.69
2023-05-05T09:40:24.920Z,99315.03
2023-05-05T09:41:37.227Z,99313.31
2023-05-05T09:42:41.999Z,99306.34
2023-05-05T09:43:52.188Z,99314.50
2023-05-05T09:44:57.859Z,99317.91
2023-05-05T09:46:08.628Z,99305.59
2023-05-05T09:47:26.054Z,99307.47
2023-05-05T09:48:33.742Z,99307.47
2023-05-05T09:49:38.247Z,99300.50
2023-05-05T09:50:45.416Z,99298.81
2023-05-05T09:51:49.517Z,99308.38
2023-05-05T09:52:55.911Z,99311.00
2023-05-05T09:53:59.545Z,99300.38
2023-05-05T09:55:05.177Z,99304.03
2023-05-05T09:56:08.723Z,99297.81
2023-05-05T09:57:27.422Z,99296.03
2023-05-05T09:58:32.466Z,99305.66
2023-05-05T09:59:36.838Z,99283.69
2023-05-05T10:00:39.644Z,99303.78
2023-05-05T10:01:44.059Z,99295.97
2023-05-05T10:02:50.986Z,99303.97
2023-05-05T10:03:53.832Z,99305.91
2023-05-05T10:05:07.150Z,99293.94
2023-05-05T10:06:11.456Z,99297.47
2023-05-05T10:07:25.453Z,99291.31
2023-05-05T10:08:31.703Z,99289.56
2023-05-05T10:09:35.840Z,99291.22
2023-05-05T10:10:48.009Z,99290.31
2023-05-05T10:11:51.080Z,99290.31
2023-05-05T10:12:54.898Z,99281.34
2023-05-05T10:13:58.586Z,99284.84
2023-05-05T10:15:05.535Z,99290.13
2023-05-05T10:16:11.336Z,99281.50
2023-05-05T10:17:15.874Z,99277.75
2023-05-05T10:18:23.431Z,99277.81
2023-05-05T10:19:30.189Z,99277.38
2023-05-05T10:20:35.100Z,99275.38
2023-05-05T10:21:42.322Z,99268.97
2023-05-05T10:22:51.813Z,99269.69
2023-05-05T10:24:01.794Z,99273.91
2023-05-05T10:25:12.826Z,99263.03
2023-05-05T10:26:20.339Z,99258.44
2023-05-05T10:27:26.059Z,99260.06
2023-05-05T10:28:34.514Z,99254.69
2023-05-05T10:29:47.139Z,99262.34
2023-05-05T10:30:53.567Z,99256.88
2023-05-05T10:32:21.404Z,99259.53
2023-05-05T10:33:36.853Z,99256.28
2023-05-05T10:34:50.210Z,99253.00
2023-05-05T10:35:56.651Z,99257.34
2023-05-05T10:37:00.619Z,99252.81
2023-05-05T10:38:09.950Z,99249.19
2023-05-05T10:39:15.788Z,99246.38
2023-05-05T10:40:20.174Z,99239.28
2023-05-05T10:41:26.369Z,99241.13
2023-05-05T10:42:30.261Z,99236.50
2023-05-05T10:43:33.035Z,99229.38
2023-05-05T10:44:37.043Z,99230.38
2023-05-05T10:45:41.895Z,99226.84
2023-05-05T10:46:45.363Z,99230.38
2023-05-05T10:47:49.142Z,99235.75
2023-05-05T10:48:59.321Z,99231.19
2023-05-05T10:50:08.323Z,99225.03
2023-05-05T10:51:35.243Z,99237.41
2023-05-05T10:52:49.134Z,99233.19
2023-05-05T10:53:59.787Z,99228.63
2023-05-05T10:55:10.941Z,99226.00
2023-05-05T10:56:20.716Z,99228.63
2023-05-05T10:57:30.126Z,99232.88
2023-05-05T10:58:38.455Z,99229.81
2023-05-05T10:59:47.915Z,99215.88
2023-05-05T11:00:53.710Z,99220.06
2023-05-05T11:01:58.493Z,99214.91
2023-05-05T11:03:23.498Z,99225.41
2023-05-05T11:04:26.172Z,99220.13
2023-05-05T11:05:29.923Z,99217.38
2023-05-05T11:06:33.148Z,99210.66
2023-05-05T11:07:37.192Z,99210.59
2023-05-05T11:08:42.550Z,99205.44
2023-05-05T11:09:55.965Z,99196.63
2023-05-05T11:11:00.251Z,99197.44
2023-05-05T11:12:03.928Z,99195.69
2023-05-05T11:13:22.507Z,99195.44
2023-05-05T11:14:25.095Z,99195.75
2023-05-05T11:15:37.996Z,99196.63
2023-05-05T11:16:49.043Z,99196.72
2023-05-05T11:17:51.903Z,99198.63
2023-05-05T11:18:55.512Z,99199.66
2023-05-05T11:19:58.161Z,99190.97
2023-05-05T11:21:22.767Z,99178.78
2023-05-05T11:22:25.580Z,99193.91
2023-05-05T11:23:30.226Z,99190.50
2023-05-05T11:24:34.251Z,99185.50
2023-05-05T11:25:52.247Z,99179.56
2023-05-05T11:26:56.170Z,99188.50
2023-05-05T11:28:09.171Z,99182.59
2023-05-05T11:29:15.066Z,99192.41
2023-05-05T11:30:17.963Z,99201.41
2023-05-05T11:31:21.742Z,99211.34
2023-05-05T11:32:25.230Z,99199.72
2023-05-05T11:33:30.725Z,99233.09
2023-05-05T11:34:34.593Z,99243.22
2023-05-05T11:35:56.162Z,99228.00
2023-05-05T11:37:03.764Z,99230.97
2023-05-05T11:38:08.850Z,99223.31
2023-05-05T11:39:24.806Z,99216.59
2023-05-05T11:40:36.963Z,99200.25
2023-05-05T11:42:06.541Z,99196.09
2023-05-05T11:43:13.323Z,99192.72
2023-05-05T11:44:18.737Z,99188.38
2023-05-05T11:45:24.304Z,99195.34
2023-05-05T11:46:26.874Z,99179.53
2023-05-05T11:47:34.592Z,99181.28
2023-05-05T11:48:45.318Z,99176.81
2023-05-05T11:49:49.187Z,99181.13
2023-05-05T11:50:53.189Z,99181.03
2023-05-05T11:51:59.543Z,99181.00
2023-05-05T11:53:03.772Z,99179.16
2023-05-05T11:54:06.617Z,99185.19
2023-05-05T11:55:11.116Z,99183.50
2023-05-05T11:56:19.392Z,99195.75
2023-05-05T11:57:29.871Z,99203.75
2023-05-05T11:58:33.533Z,99217.84
2023-05-05T11:59:50.264Z,99204.81
2023-05-05T12:00:53.985Z,99207.44
2023-05-05T12:01:56.704Z,99208.38
2023-05-05T12:03:01.082Z,99207.50
2023-05-05T12:04:03.969Z,99218.31
2023-05-05T12:05:08.803Z,99216.66
2023-05-05T12:06:11.523Z,99215.09
2023-05-05T12:07:19.365Z,99209.06
2023-05-05T12:08:22.971Z,99208.41
2023-05-05T12:09:25.860Z,99193.81
2023-05-05T12:10:29.682Z,99193.91
2023-05-05T12:11:32.441Z,99198.38
2023-05-05T12:12:37.752Z,99200.28
2023-05-05T12:13:41.875Z,99204.91
2023-05-05T12:14:52.087Z,99203.94
2023-05-05T12:15:56.564Z,99212.78
2023-05-05T12:17:01.617Z,99201.41
2023-05-05T12:18:08.863Z,99205.00
2023-05-05T12:19:14.500Z,99198.06
2023-05-05T12:20:18.180Z,99201.63
2023-05-05T12:21:21.157Z,99203.47
2023-05-05T12:22:26.971Z,99202.59
2023-05-05T12:23:30.599Z,99196.56
2023-05-05T12:24:34.555Z,99194.00
2023-05-05T12:25:39.658Z,99183.56
2023-05-05T12:26:42.502Z,99186.19
2023-05-05T12:27:53.694Z,99171.41
2023-05-05T12:28:56.802Z,99165.28
2023-05-05T12:30:13.761Z,99169.66
2023-05-05T12:31:16.905Z,99169.63
2023-05-05T12:32:21.886Z,99169.63
2023-05-05T12:33:26.137Z,99169.56
2023-05-05T12:34:29.076Z,99167.75
2023-05-05T12:35:33.478Z,99165.94
2023-05-05T12:36:38.680Z,99165.91
2023-05-05T12:37:42.943Z,99166.72
2023-05-05T12:38:45.563Z,99172.78
2023-05-05T12:39:49.857Z,99171.84
2023-05-05T12:40:54.089Z,99170.03
2023-05-05T12:42:04.635Z,99168.19
2023-05-05T12:43:07.164Z,99162.88
2023-05-05T12:44:10.865Z,99160.19
2023-05-05T12:45:18.146Z,99161.91
2023-05-05T12:46:22.386Z,99165.38
2023-05-05T12:47:33.065Z,99156.56
2023-05-05T12:48:38.168Z,99148.72